Time;durP1;ratioP1;P1;durP2;ratioP2;P2;SDS_P1;SDS_P2;PMS_P1;PMS_P2;Temp;Humidity;BMP_temperature;BMP_pressure;BME280_temperature;BME280_humidity;BME280_pressure;Samples;Min_cycle;Max_cycle;Signal;HPM_P1;HPM_P2
2023/06/21 00:00:25;;;;;;;32.45;29.05;;;21.90;99.90;;;;;;5090686;28;20020;-53
2023/06/21 00:02:53;;;;;;;31.45;28.15;;;21.90;99.90;;;;;;5091941;28;20036;-53
2023/06/21 00:05:19;;;;;;;34.65;28.63;;;21.90;99.90;;;;;;5090370;28;20485;-52
2023/06/21 00:07:47;;;;;;;32.95;28.58;;;21.90;99.90;;;;;;5091264;28;20037;-52
2023/06/21 00:10:13;;;;;;;31.20;27.73;;;21.90;99.90;;;;;;5091852;28;20024;-50
2023/06/21 00:12:39;;;;;;;31.85;28.45;;;21.90;99.90;;;;;;5090486;28;20052;-51
2023/06/21 00:15:05;;;;;;;32.05;28.70;;;21.80;99.90;;;;;;5091381;28;20512;-52
2023/06/21 00:17:31;;;;;;;29.67;26.63;;;21.80;99.90;;;;;;5088566;28;20386;-51
2023/06/21 00:19:57;;;;;;;30.75;27.13;;;21.70;99.90;;;;;;5070800;28;20053;-51
2023/06/21 00:22:24;;;;;;;32.65;25.40;;;21.70;99.90;;;;;;5074435;28;20078;-51
2023/06/21 00:24:57;;;;;;;26.67;23.88;;;21.70;99.90;;;;;;5074672;28;20035;-51
2023/06/21 00:27:22;;;;;;;26.45;23.73;;;21.70;99.90;;;;;;5069843;28;20028;-51
2023/06/21 00:29:49;;;;;;;27.58;22.75;;;21.70;99.90;;;;;;5080755;28;20036;-51
2023/06/21 00:32:17;;;;;;;27.35;24.33;;;21.70;99.90;;;;;;5083106;28;20105;-51
2023/06/21 00:34:46;;;;;;;25.77;22.33;;;21.60;99.90;;;;;;5081789;28;20024;-51
2023/06/21 00:37:15;;;;;;;25.25;22.23;;;21.60;99.90;;;;;;5078288;28;20031;-55
2023/06/21 00:39:41;;;;;;;26.90;24.02;;;21.60;99.90;;;;;;5087283;28;20099;-53
2023/06/21 00:42:10;;;;;;;26.95;23.13;;;21.60;99.90;;;;;;5080447;28;20103;-53
2023/06/21 00:44:36;;;;;;;25.40;22.70;;;21.60;99.90;;;;;;5083906;28;20048;-50
2023/06/21 00:47:02;;;;;;;24.15;21.48;;;21.60;99.90;;;;;;5089088;28;20059;-53
2023/06/21 00:49:28;;;;;;;23.50;21.10;;;21.50;99.90;;;;;;5089759;28;20073;-54
2023/06/21 00:51:58;;;;;;;22.30;19.30;;;21.50;99.90;;;;;;5081222;28;20029;-53
2023/06/21 00:54:36;;;;;;;25.33;21.48;;;21.50;99.90;;;;;;5085537;28;20020;-52
2023/06/21 00:57:05;;;;;;;22.08;19.70;;;21.50;99.90;;;;;;5088212;28;20024;-53
2023/06/21 00:59:31;;;;;;;22.33;19.50;;;21.40;99.90;;;;;;5089519;28;20034;-52
2023/06/21 01:02:00;;;;;;;21.25;17.83;;;21.40;99.90;;;;;;5090792;28;20020;-53
2023/06/21 01:04:30;;;;;;;17.83;16.05;;;21.40;99.90;;;;;;5090863;28;20023;-52
2023/06/21 01:07:24;;;;;;;15.88;14.27;;;21.40;99.90;;;;;;5090534;28;20020;-52
2023/06/21 01:09:50;;;;;;;16.05;13.82;;;21.30;99.90;;;;;;5089543;28;20111;-54
2023/06/21 01:12:51;;;;;;;15.88;13.98;;;21.20;99.90;;;;;;5086287;28;20482;-54
2023/06/21 01:15:24;;;;;;;16.13;14.43;;;21.30;99.90;;;;;;5075989;28;20039;-53
2023/06/21 01:17:52;;;;;;;16.67;13.65;;;21.20;99.90;;;;;;5083510;28;20390;-54
2023/06/21 01:20:25;;;;;;;15.15;12.50;;;21.20;99.90;;;;;;5075521;28;20444;-53
2023/06/21 01:23:03;;;;;;;17.77;13.32;;;21.10;99.90;;;;;;5087589;28;20043;-52
2023/06/21 01:25:53;;;;;;;19.50;12.20;;;21.10;99.90;;;;;;5082280;28;20111;-52
2023/06/21 01:28:31;;;;;;;13.15;11.00;;;21.10;99.90;;;;;;5076361;28;20055;-51
2023/06/21 01:30:58;;;;;;;12.55;10.70;;;21.00;99.90;;;;;;5088838;28;20529;-51
2023/06/21 01:33:26;;;;;;;12.63;10.77;;;21.00;99.90;;;;;;5088925;28;20024;-49
2023/06/21 01:35:54;;;;;;;16.45;11.85;;;21.00;99.90;;;;;;5088449;28;20166;-48
2023/06/21 01:38:20;;;;;;;14.38;12.18;;;21.00;99.90;;;;;;5081416;28;20081;-54
2023/06/21 01:40:46;;;;;;;16.08;12.27;;;21.00;99.90;;;;;;5088536;28;20076;-49
2023/06/21 01:43:16;;;;;;;13.95;12.48;;;20.90;99.90;;;;;;5088860;28;20024;-50
2023/06/21 01:45:42;;;;;;;15.85;11.90;;;20.90;99.90;;;;;;5090270;28;20024;-49
2023/06/21 01:48:08;;;;;;;17.73;12.63;;;20.80;99.90;;;;;;5089452;28;20035;-50
2023/06/21 01:50:40;;;;;;;14.93;12.80;;;20.80;99.90;;;;;;5088701;28;20365;-50
2023/06/21 01:53:06;;;;;;;14.65;12.38;;;20.80;99.90;;;;;;5089631;28;20016;-50
2023/06/21 01:55:32;;;;;;;14.63;13.02;;;20.80;99.90;;;;;;5089460;28;20020;-50
2023/06/21 01:58:00;;;;;;;16.20;13.20;;;20.70;99.90;;;;;;5089348;28;20046;-50
2023/06/21 02:00:26;;;;;;;16.10;13.85;;;20.70;99.90;;;;;;5089887;28;20012;-51
2023/06/21 02:03:03;;;;;;;19.55;14.57;;;20.70;99.90;;;;;;5088231;28;20028;-51
2023/06/21 02:05:30;;;;;;;17.30;15.32;;;20.70;99.90;;;;;;5088246;28;20570;-51
2023/06/21 02:07:57;;;;;;;16.95;14.38;;;20.70;99.90;;;;;;5087885;28;20545;-50
2023/06/21 02:10:25;;;;;;;18.25;13.82;;;20.60;99.90;;;;;;5089664;28;20427;-50
2023/06/21 02:12:54;;;;;;;15.30;13.68;;;20.50;99.90;;;;;;5079852;28;20023;-50
2023/06/21 02:15:20;;;;;;;16.63;14.82;;;20.50;99.90;;;;;;5089568;28;20532;-50
2023/06/21 02:17:52;;;;;;;17.80;14.27;;;20.50;99.90;;;;;;5069702;28;20028;-50
2023/06/21 02:20:19;;;;;;;17.35;14.15;;;20.40;99.90;;;;;;5089208;28;20012;-48
2023/06/21 02:22:46;;;;;;;20.08;14.57;;;20.40;99.90;;;;;;5089211;28;20079;-50
2023/06/21 02:25:13;;;;;;;15.45;13.85;;;20.40;99.90;;;;;;5080720;28;20565;-49
2023/06/21 02:27:42;;;;;;;17.52;14.77;;;20.40;99.90;;;;;;5088901;28;20050;-50
2023/06/21 02:30:09;;;;;;;14.68;13.18;;;20.30;99.90;;;;;;5076864;28;20464;-53
2023/06/21 02:32:38;;;;;;;17.13;13.88;;;20.30;99.90;;;;;;5084574;28;20032;-51
2023/06/21 02:35:09;;;;;;;16.80;13.68;;;20.30;99.90;;;;;;5080846;28;20024;-51
2023/06/21 02:37:35;;;;;;;15.00;13.45;;;20.30;99.90;;;;;;5087303;28;20107;-52
2023/06/21 02:40:09;;;;;;;14.00;12.40;;;20.30;99.90;;;;;;5089613;28;20127;-51
2023/06/21 02:42:39;;;;;;;12.55;11.23;;;20.20;99.90;;;;;;5088674;28;20036;-52
2023/06/21 02:45:11;;;;;;;15.00;12.38;;;20.20;99.90;;;;;;5088347;28;20540;-53
2023/06/21 02:47:36;;;;;;;15.38;11.63;;;20.20;99.90;;;;;;5086595;28;20047;-51
2023/06/21 02:50:03;;;;;;;13.70;11.13;;;20.20;99.90;;;;;;5087265;28;20036;-53
2023/06/21 02:52:32;;;;;;;13.38;11.60;;;20.20;99.90;;;;;;5088617;28;20024;-52
2023/06/21 02:54:58;;;;;;;12.77;11.48;;;20.20;99.90;;;;;;5088702;28;20020;-52
2023/06/21 02:57:24;;;;;;;15.30;11.75;;;20.20;99.90;;;;;;5088487;28;20023;-52
2023/06/21 02:59:50;;;;;;;11.35;10.05;;;20.20;99.90;;;;;;5089070;28;20024;-51
2023/06/21 03:02:18;;;;;;;13.82;11.73;;;20.20;99.90;;;;;;5087604;28;20016;-52
2023/06/21 03:04:47;;;;;;;12.30;10.60;;;20.20;99.90;;;;;;5079287;28;20522;-51
2023/06/21 03:07:17;;;;;;;14.48;11.43;;;20.20;99.90;;;;;;5088415;28;20039;-52
2023/06/21 03:09:42;;;;;;;13.07;11.43;;;20.20;99.90;;;;;;5089219;28;20032;-54
2023/06/21 03:12:08;;;;;;;13.55;10.85;;;20.20;99.90;;;;;;5088384;28;20051;-52
2023/06/21 03:14:37;;;;;;;12.38;11.07;;;20.10;99.90;;;;;;5088844;28;20493;-52
2023/06/21 03:17:04;;;;;;;13.10;10.77;;;20.10;99.90;;;;;;5078278;28;20028;-51
2023/06/21 03:19:33;;;;;;;13.20;11.75;;;20.10;99.90;;;;;;5088344;28;20477;-51
2023/06/21 03:21:59;;;;;;;11.93;10.43;;;20.10;99.90;;;;;;5077866;28;20402;-52
2023/06/21 03:24:31;;;;;;;13.38;11.80;;;20.10;99.90;;;;;;5082652;28;20024;-50
2023/06/21 03:26:57;;;;;;;18.55;14.00;;;20.10;99.90;;;;;;5084687;28;20027;-50
2023/06/21 03:29:23;;;;;;;17.95;12.88;;;20.10;99.90;;;;;;5074380;28;20020;-50
2023/06/21 03:31:49;;;;;;;14.55;11.95;;;20.00;99.90;;;;;;5089820;28;20031;-50
2023/06/21 03:34:17;;;;;;;13.02;11.68;;;20.00;99.90;;;;;;5092653;28;20020;-50
2023/06/21 03:36:44;;;;;;;14.75;12.90;;;20.00;99.90;;;;;;5090479;28;20115;-50
2023/06/21 03:39:12;;;;;;;16.40;12.27;;;20.00;99.90;;;;;;5091031;28;20432;-53
2023/06/21 03:41:40;;;;;;;16.23;13.63;;;20.00;99.90;;;;;;5092645;28;20315;-51
2023/06/21 03:44:06;;;;;;;16.05;12.57;;;19.90;99.90;;;;;;5091168;28;20016;-51
2023/06/21 03:46:32;;;;;;;15.48;12.65;;;19.90;99.90;;;;;;5090288;28;20016;-52
2023/06/21 03:48:58;;;;;;;16.10;12.68;;;19.90;99.90;;;;;;5073783;28;20031;-51
2023/06/21 03:51:25;;;;;;;14.75;12.20;;;20.00;99.90;;;;;;5092139;28;20096;-51
2023/06/21 03:53:51;;;;;;;16.73;13.02;;;20.10;99.90;;;;;;5092276;28;20024;-50
2023/06/21 03:56:17;;;;;;;14.73;13.15;;;20.10;99.90;;;;;;5090140;28;20016;-51
2023/06/21 03:58:42;;;;;;;14.85;12.73;;;20.10;99.90;;;;;;5076194;28;20028;-51
2023/06/21 04:01:08;;;;;;;17.23;13.38;;;20.10;99.90;;;;;;5074400;28;20102;-50
2023/06/21 04:03:36;;;;;;;18.73;13.23;;;20.20;99.90;;;;;;5084219;28;20032;-51
2023/06/21 04:06:02;;;;;;;16.25;11.63;;;20.10;99.90;;;;;;5090172;28;20038;-51
2023/06/21 04:08:31;;;;;;;18.50;11.88;;;20.20;99.90;;;;;;5089766;28;20459;-52
2023/06/21 04:10:57;;;;;;;20.77;11.77;;;20.20;99.90;;;;;;5086686;28;20078;-51
2023/06/21 04:13:23;;;;;;;17.38;12.05;;;20.20;99.90;;;;;;5084102;28;20016;-50
2023/06/21 04:15:49;;;;;;;16.33;11.02;;;20.30;99.90;;;;;;5089832;28;20028;-50
2023/06/21 04:18:14;;;;;;;17.52;12.15;;;20.30;99.90;;;;;;5089954;28;20043;-51
2023/06/21 04:20:43;;;;;;;15.00;10.80;;;20.30;99.90;;;;;;5090309;28;20296;-49
2023/06/21 04:23:09;;;;;;;15.68;10.90;;;20.30;99.90;;;;;;5077990;28;20040;-50
2023/06/21 04:25:37;;;;;;;23.63;10.32;;;20.30;99.90;;;;;;5069096;28;20045;-51
2023/06/21 04:28:03;;;;;;;13.48;9.45;;;20.40;99.90;;;;;;5069004;28;20552;-50
2023/06/21 04:30:33;;;;;;;13.35;10.38;;;20.40;99.90;;;;;;5070499;28;20055;-48
2023/06/21 04:32:59;;;;;;;15.77;11.50;;;20.40;99.90;;;;;;5070893;28;20073;-49
2023/06/21 04:35:25;;;;;;;18.52;11.57;;;20.40;99.90;;;;;;5069394;28;20074;-51
2023/06/21 04:37:50;;;;;;;15.15;10.73;;;20.50;99.90;;;;;;5070021;28;20325;-49
2023/06/21 04:40:17;;;;;;;14.93;10.43;;;20.50;99.90;;;;;;5070340;28;20047;-50
2023/06/21 04:42:45;;;;;;;18.80;10.68;;;20.60;99.90;;;;;;5070892;28;20020;-52
2023/06/21 04:45:15;;;;;;;18.75;10.30;;;20.70;99.90;;;;;;5070305;28;20100;-50
2023/06/21 04:47:47;;;;;;;13.40;10.00;;;20.70;99.90;;;;;;5070223;28;20531;-51
2023/06/21 04:50:15;;;;;;;17.13;10.63;;;20.70;99.90;;;;;;5066374;28;20488;-51
2023/06/21 04:52:47;;;;;;;14.60;10.43;;;20.70;99.90;;;;;;5068921;28;20028;-50
2023/06/21 04:55:17;;;;;;;14.65;9.98;;;20.70;99.90;;;;;;5070500;28;20020;-50
2023/06/21 04:57:43;;;;;;;16.10;9.85;;;20.80;99.90;;;;;;5068631;28;20066;-50
2023/06/21 05:00:09;;;;;;;13.15;9.88;;;20.80;99.90;;;;;;5073127;28;20024;-50
2023/06/21 05:02:35;;;;;;;15.27;10.45;;;20.90;99.90;;;;;;5079730;28;20028;-51
2023/06/21 05:05:04;;;;;;;17.90;10.32;;;20.90;99.90;;;;;;5079368;28;20598;-51
2023/06/21 05:07:32;;;;;;;13.88;10.50;;;20.80;99.90;;;;;;5079972;28;20031;-51
2023/06/21 05:09:58;;;;;;;16.95;11.45;;;20.80;99.90;;;;;;5082083;28;20043;-51
2023/06/21 05:12:26;;;;;;;13.90;10.68;;;20.80;99.90;;;;;;5083617;28;20020;-52
2023/06/21 05:14:54;;;;;;;18.80;10.93;;;20.80;99.90;;;;;;5086890;28;20624;-51
2023/06/21 05:17:20;;;;;;;17.17;11.52;;;20.80;99.90;;;;;;5083307;28;20024;-51
2023/06/21 05:19:49;;;;;;;14.90;11.90;;;20.80;99.90;;;;;;5080814;28;20020;-51
2023/06/21 05:22:17;;;;;;;14.98;10.85;;;20.80;99.90;;;;;;5065475;28;20112;-50
2023/06/21 05:24:46;;;;;;;19.67;12.85;;;20.80;99.90;;;;;;5080656;28;20103;-49
2023/06/21 05:27:12;;;;;;;15.60;11.45;;;20.70;99.90;;;;;;5073271;28;20032;-51
2023/06/21 05:29:40;;;;;;;16.92;12.45;;;20.60;99.90;;;;;;5077180;28;20020;-50
2023/06/21 05:32:07;;;;;;;19.48;12.75;;;20.60;99.90;;;;;;5079458;28;20452;-51
2023/06/21 05:34:35;;;;;;;20.75;11.88;;;20.70;99.90;;;;;;5078029;28;20055;-51
2023/06/21 05:37:03;;;;;;;12.63;11.27;;;20.70;99.90;;;;;;5078045;28;20056;-50
2023/06/21 05:39:29;;;;;;;14.55;11.65;;;20.80;99.90;;;;;;5076029;28;20031;-50
2023/06/21 05:41:55;;;;;;;15.32;12.40;;;20.80;99.90;;;;;;5078233;28;20367;-51
2023/06/21 05:44:24;;;;;;;14.27;11.63;;;20.80;99.90;;;;;;5075077;28;20020;-50
2023/06/21 05:46:53;;;;;;;14.00;12.55;;;20.80;99.90;;;;;;5074645;28;20043;-48
2023/06/21 05:49:19;;;;;;;20.08;12.20;;;20.90;99.90;;;;;;5074276;28;20037;-50
2023/06/21 05:51:45;;;;;;;21.13;12.80;;;21.00;99.90;;;;;;5076045;28;20028;-51
2023/06/21 05:54:12;;;;;;;18.13;12.65;;;21.10;99.90;;;;;;5079695;28;20040;-51
2023/06/21 05:56:38;;;;;;;19.17;14.02;;;21.00;99.90;;;;;;5075687;28;20016;-52
2023/06/21 05:59:04;;;;;;;18.05;13.15;;;21.00;99.90;;;;;;5081507;28;20500;-52
2023/06/21 06:01:30;;;;;;;16.20;11.75;;;21.10;99.90;;;;;;5078385;28;20051;-51
2023/06/21 06:03:56;;;;;;;14.23;10.70;;;21.30;99.90;;;;;;5081066;28;20028;-51
2023/06/21 06:06:22;;;;;;;18.75;12.70;;;21.30;99.90;;;;;;5080503;28;20022;-50
2023/06/21 06:08:47;;;;;;;13.70;10.90;;;21.40;99.90;;;;;;5083226;28;20024;-50
2023/06/21 06:11:13;;;;;;;14.50;10.90;;;21.50;99.90;;;;;;5074523;28;20030;-52
2023/06/21 06:13:39;;;;;;;15.48;10.93;;;21.60;99.90;;;;;;5071571;28;20036;-51
2023/06/21 06:16:05;;;;;;;13.52;11.18;;;21.70;99.90;;;;;;5069324;28;20364;-51
2023/06/21 06:18:31;;;;;;;16.95;10.40;;;21.80;99.90;;;;;;5071488;28;20155;-56
2023/06/21 06:20:57;;;;;;;13.45;9.55;;;21.90;99.90;;;;;;5075837;28;20096;-51
2023/06/21 06:23:23;;;;;;;11.35;9.05;;;22.10;99.90;;;;;;5079735;28;20020;-51
2023/06/21 06:25:48;;;;;;;13.10;10.10;;;22.20;99.90;;;;;;5084446;28;20027;-51
2023/06/21 06:28:14;;;;;;;13.73;9.32;;;22.40;99.90;;;;;;5077473;28;20035;-50
2023/06/21 06:30:41;;;;;;;11.13;8.05;;;22.30;99.90;;;;;;5083816;28;20056;-51
2023/06/21 06:33:09;;;;;;;9.48;8.02;;;22.40;99.90;;;;;;5082546;28;20082;-52
2023/06/21 06:35:38;;;;;;;13.52;8.80;;;22.50;99.90;;;;;;5081522;28;20027;-52
2023/06/21 06:38:04;;;;;;;14.13;9.48;;;22.50;99.90;;;;;;5075939;28;20023;-52
2023/06/21 06:40:30;;;;;;;12.50;9.20;;;22.50;99.90;;;;;;5068905;28;20028;-52
2023/06/21 06:42:57;;;;;;;13.02;9.18;;;22.30;99.90;;;;;;5070134;28;20021;-51
2023/06/21 06:45:23;;;;;;;11.70;9.45;;;22.30;99.90;;;;;;5072863;28;20090;-51
2023/06/21 06:47:49;;;;;;;10.57;8.73;;;22.40;99.90;;;;;;5067567;28;20021;-52
2023/06/21 06:50:14;;;;;;;10.00;8.15;;;22.40;99.90;;;;;;5071503;28;20544;-50
2023/06/21 06:52:40;;;;;;;12.40;8.95;;;22.40;99.90;;;;;;5075331;28;20028;-51
2023/06/21 06:55:06;;;;;;;9.93;8.02;;;22.40;99.90;;;;;;5085482;28;20016;-52
2023/06/21 06:57:32;;;;;;;10.60;8.05;;;22.50;99.90;;;;;;5076789;28;20078;-52
2023/06/21 06:59:58;;;;;;;13.73;8.77;;;22.60;99.90;;;;;;5080177;28;20019;-50
2023/06/21 07:02:24;;;;;;;10.68;8.00;;;22.70;99.90;;;;;;5074749;28;20435;-52
2023/06/21 07:04:52;;;;;;;12.20;7.93;;;22.80;99.90;;;;;;5083085;28;20055;-52
2023/06/21 07:07:18;;;;;;;9.68;7.70;;;22.90;99.90;;;;;;5079742;28;20073;-52
2023/06/21 07:09:44;;;;;;;12.50;8.30;;;23.00;99.90;;;;;;5080202;28;20479;-52
2023/06/21 07:12:11;;;;;;;7.78;6.97;;;23.10;99.90;;;;;;5076260;28;20390;-51
2023/06/21 07:14:37;;;;;;;12.93;7.80;;;23.20;99.90;;;;;;5073877;28;20019;-52
2023/06/21 07:17:03;;;;;;;9.07;7.40;;;23.40;99.90;;;;;;5080910;28;20032;-52
2023/06/21 07:19:32;;;;;;;9.75;6.57;;;23.50;99.90;;;;;;5076174;28;20021;-52
2023/06/21 07:22:01;;;;;;;12.70;8.00;;;23.60;99.90;;;;;;5074024;28;20060;-53
2023/06/21 07:24:30;;;;;;;7.13;6.43;;;23.70;99.90;;;;;;5088176;28;20031;-53
2023/06/21 07:26:55;;;;;;;8.73;6.82;;;23.90;99.90;;;;;;5073941;28;20025;-52
2023/06/21 07:29:21;;;;;;;12.63;6.50;;;24.00;99.90;;;;;;5082796;28;20035;-52
2023/06/21 07:31:48;;;;;;;8.18;5.90;;;24.10;99.90;;;;;;5079360;28;20035;-53
2023/06/21 07:34:14;;;;;;;9.88;6.55;;;24.20;99.90;;;;;;5084683;28;20017;-52
2023/06/21 07:36:40;;;;;;;8.75;6.30;;;24.20;99.90;;;;;;5080316;28;20032;-52
2023/06/21 07:39:06;;;;;;;9.35;6.38;;;24.30;99.90;;;;;;5075631;28;20024;-52
2023/06/21 07:41:31;;;;;;;9.95;6.15;;;24.40;99.90;;;;;;5073070;28;20369;-51
2023/06/21 07:43:57;;;;;;;6.63;5.68;;;24.60;99.90;;;;;;5074655;28;20032;-52
2023/06/21 07:46:25;;;;;;;6.25;5.57;;;24.70;99.90;;;;;;5079492;28;20284;-52
2023/06/21 07:48:54;;;;;;;7.13;5.30;;;24.70;99.90;;;;;;5079757;28;20366;-52
2023/06/21 07:51:20;;;;;;;7.32;6.10;;;24.90;99.90;;;;;;5082371;28;20063;-52
2023/06/21 07:53:48;;;;;;;7.65;5.95;;;24.90;99.90;;;;;;5077474;28;20060;-53
2023/06/21 07:56:14;;;;;;;9.43;6.78;;;24.80;99.90;;;;;;5085423;28;20035;-53
2023/06/21 07:58:43;;;;;;;8.38;6.10;;;24.90;99.90;;;;;;5082593;28;20023;-52
2023/06/21 08:01:09;;;;;;;6.75;5.47;;;25.10;99.90;;;;;;5081323;28;20034;-58
2023/06/21 08:03:35;;;;;;;9.85;6.53;;;25.30;99.90;;;;;;5074704;28;20025;-58
2023/06/21 08:06:01;;;;;;;6.35;5.28;;;25.30;99.90;;;;;;5077864;28;21108;-58
2023/06/21 08:08:27;;;;;;;8.75;5.68;;;25.60;99.90;;;;;;5072125;28;20056;-58
2023/06/21 08:10:56;;;;;;;6.07;5.47;;;25.60;99.90;;;;;;5076611;28;20028;-58
2023/06/21 08:13:22;;;;;;;8.43;5.53;;;25.90;99.90;;;;;;5084236;28;20111;-58
2023/06/21 08:15:51;;;;;;;9.80;6.35;;;26.20;99.90;;;;;;5084323;28;20549;-58
2023/06/21 08:18:17;;;;;;;12.02;5.95;;;26.50;99.90;;;;;;5080092;28;20463;-58
2023/06/21 08:20:42;;;;;;;12.38;5.43;;;26.60;99.90;;;;;;5081174;28;20570;-58
2023/06/21 08:23:08;;;;;;;8.07;5.47;;;26.80;99.90;;;;;;5077840;28;20074;-58
2023/06/21 08:25:35;;;;;;;6.25;4.43;;;27.40;99.60;;;;;;5081041;28;20068;-58
2023/06/21 08:28:01;;;;;;;6.78;5.20;;;27.90;98.60;;;;;;5080108;28;20038;-58
2023/06/21 08:30:30;;;;;;;8.98;4.38;;;28.50;96.60;;;;;;5073725;28;20099;-59
2023/06/21 08:32:56;;;;;;;8.18;4.90;;;29.10;95.70;;;;;;5080730;28;20035;-59
2023/06/21 08:35:24;;;;;;;7.85;4.65;;;29.40;94.80;;;;;;5081677;28;20020;-59
2023/06/21 08:37:55;;;;;;;6.93;4.75;;;30.10;93.90;;;;;;5077989;28;20028;-54
2023/06/21 08:40:25;;;;;;;5.47;4.20;;;30.80;91.50;;;;;;5080239;28;20023;-54
2023/06/21 08:42:52;;;;;;;4.20;3.80;;;30.80;90.10;;;;;;5080884;28;20545;-54
2023/06/21 09:00:20;;;;;;;6.95;4.32;;;31.70;83.60;;;;;;5138786;27;20388;-60
2023/06/21 09:02:53;;;;;;;7.10;3.97;;;34.40;77.00;;;;;;5120120;28;20477;-58
2023/06/21 09:05:58;;;;;;;4.35;3.95;;;34.60;75.00;;;;;;5089446;28;20035;-60
2023/06/21 09:08:24;;;;;;;4.78;4.15;;;35.00;74.80;;;;;;5000935;28;1205218;-59
2023/06/21 09:10:52;;;;;;;5.35;3.70;;;34.80;72.80;;;;;;5084944;28;20032;-59
2023/06/21 09:13:22;;;;;;;4.95;4.05;;;35.10;71.80;;;;;;5055986;28;20024;-59
2023/06/21 09:15:48;;;;;;;4.07;3.60;;;35.10;69.70;;;;;;5072953;28;20082;-59
2023/06/21 09:18:15;;;;;;;5.10;3.47;;;35.20;70.00;;;;;;5053738;28;20024;-58
2023/06/21 09:20:43;;;;;;;3.95;3.45;;;34.90;69.60;;;;;;5073001;28;20031;-59
2023/06/21 09:23:09;;;;;;;8.87;3.73;;;35.10;69.60;;;;;;5084589;28;20427;-61
2023/06/21 09:25:34;;;;;;;3.50;3.20;;;35.60;68.10;;;;;;5077369;28;20029;-61
2023/06/21 09:28:00;;;;;;;7.80;3.47;;;36.20;66.50;;;;;;5076418;28;20032;-60
2023/06/21 09:30:26;;;;;;;3.60;3.15;;;36.00;63.80;;;;;;5074370;28;20029;-60
2023/06/21 09:32:51;;;;;;;4.90;3.60;;;36.10;64.30;;;;;;5058386;28;20101;-59
2023/06/21 09:35:18;;;;;;;3.60;3.28;;;36.30;63.20;;;;;;5081045;28;20029;-59
2023/06/21 09:37:43;;;;;;;4.35;3.20;;;35.80;64.70;;;;;;5065239;28;20029;-60
2023/06/21 09:40:09;;;;;;;4.38;3.50;;;35.70;65.50;;;;;;5082106;28;20381;-59
2023/06/21 09:42:45;;;;;;;6.03;3.05;;;35.50;64.60;;;;;;5067122;28;20089;-59
2023/06/21 09:45:11;;;;;;;5.05;3.78;;;35.70;65.20;;;;;;5070919;28;20021;-59
2023/06/21 09:47:40;;;;;;;4.78;3.85;;;34.80;64.70;;;;;;5064637;28;20020;-59
2023/06/21 09:50:06;;;;;;;4.45;3.30;;;35.10;65.00;;;;;;5068872;28;20103;-59
2023/06/21 09:52:32;;;;;;;7.18;3.75;;;35.70;64.40;;;;;;5084584;28;20104;-60
2023/06/21 09:54:58;;;;;;;4.35;3.33;;;35.50;63.80;;;;;;5084349;28;20036;-60
2023/06/21 09:57:30;;;;;;;3.88;3.05;;;35.50;63.90;;;;;;5072332;28;20021;-61
2023/06/21 09:59:57;;;;;;;3.67;3.05;;;35.10;63.80;;;;;;5046043;28;20139;-59
2023/06/21 10:02:24;;;;;;;4.70;3.55;;;35.40;63.80;;;;;;5051005;28;20081;-59
2023/06/21 10:04:54;;;;;;;5.18;3.65;;;35.40;63.90;;;;;;5045401;28;20025;-59
2023/06/21 10:07:20;;;;;;;4.38;3.95;;;34.60;64.50;;;;;;5050260;28;20040;-60
2023/06/21 10:09:47;;;;;;;4.13;3.60;;;34.00;66.00;;;;;;5055206;28;20020;-59
2023/06/21 10:12:14;;;;;;;6.00;3.60;;;33.70;66.90;;;;;;5068871;28;20012;-59
2023/06/21 10:14:41;;;;;;;5.53;3.83;;;33.50;67.20;;;;;;5069292;28;20027;-59
2023/06/21 10:17:07;;;;;;;3.90;3.50;;;33.10;67.80;;;;;;5067512;28;20107;-60
2023/06/21 10:19:34;;;;;;;6.45;4.20;;;33.20;67.80;;;;;;5070530;28;20520;-60
2023/06/21 10:22:20;;;;;;;6.32;3.80;;;33.30;68.60;;;;;;5066652;28;20437;-59
2023/06/21 10:24:51;;;;;;;5.70;3.85;;;33.80;66.10;;;;;;5061127;28;20028;-60
2023/06/21 10:27:19;;;;;;;4.75;3.90;;;34.40;65.80;;;;;;5070093;28;20032;-60
2023/06/21 10:29:48;;;;;;;4.15;3.70;;;33.60;66.70;;;;;;5065793;28;20036;-60
2023/06/21 10:32:15;;;;;;;7.93;3.80;;;34.00;68.10;;;;;;5061931;28;20021;-59
2023/06/21 10:34:56;;;;;;;3.80;3.50;;;34.40;66.40;;;;;;5066068;28;20021;-60
2023/06/21 10:37:35;;;;;;;7.15;3.92;;;35.20;65.50;;;;;;5084577;28;20020;-59
2023/06/21 10:40:05;;;;;;;4.75;3.67;;;35.20;63.30;;;;;;5066635;28;20510;-59
2023/06/21 10:42:31;;;;;;;4.93;3.80;;;34.70;65.50;;;;;;5069151;28;20363;-60
2023/06/21 10:44:59;;;;;;;8.75;3.88;;;34.30;64.50;;;;;;5068134;28;20025;-60
2023/06/21 10:47:25;;;;;;;3.90;3.50;;;33.70;64.70;;;;;;5067075;28;20457;-60
2023/06/21 10:49:58;;;;;;;5.07;3.67;;;34.10;65.20;;;;;;5067195;28;20416;-60
2023/06/21 10:52:26;;;;;;;5.10;3.78;;;34.30;65.60;;;;;;5066035;28;20077;-59
2023/06/21 10:54:55;;;;;;;4.30;3.90;;;34.60;63.90;;;;;;5067200;28;20696;-59
2023/06/21 10:57:23;;;;;;;4.78;3.75;;;33.80;64.80;;;;;;5070392;28;20020;-59
2023/06/21 10:59:49;;;;;;;6.95;4.40;;;34.10;65.00;;;;;;5069619;28;20174;-59
2023/06/21 11:02:15;;;;;;;4.40;4.00;;;33.60;65.70;;;;;;5070259;28;20086;-58
2023/06/21 11:05:18;;;;;;;8.27;4.60;;;33.40;66.20;;;;;;5070057;28;20040;-58
2023/06/21 11:07:54;;;;;;;5.95;3.85;;;34.40;66.00;;;;;;5063507;28;20116;-58
2023/06/21 11:10:21;;;;;;;5.65;4.10;;;35.00;63.00;;;;;;5037569;28;20400;-59
2023/06/21 11:12:47;;;;;;;5.60;4.13;;;35.00;62.30;;;;;;5035699;28;20029;-59
2023/06/21 11:15:21;;;;;;;4.55;3.60;;;34.10;63.40;;;;;;5051350;28;20360;-58
2023/06/21 11:18:03;;;;;;;4.70;4.03;;;34.10;65.10;;;;;;5038459;28;20131;-58
2023/06/21 11:20:33;;;;;;;5.82;4.35;;;34.60;63.60;;;;;;5046144;28;20041;-58
2023/06/21 11:23:00;;;;;;;4.60;3.90;;;35.00;63.80;;;;;;5040532;28;20052;-58
2023/06/21 11:25:27;;;;;;;5.45;3.53;;;34.90;63.30;;;;;;5050323;28;20475;-59
2023/06/21 11:28:25;;;;;;;6.15;4.03;;;33.90;63.10;;;;;;5040199;28;20071;-57
2023/06/21 11:31:07;;;;;;;5.70;4.35;;;33.10;64.50;;;;;;5038483;28;20031;-57
2023/06/21 11:33:53;;;;;;;4.78;4.20;;;32.80;66.70;;;;;;5049557;28;20450;-59
2023/06/21 11:36:26;;;;;;;4.57;4.13;;;32.10;66.90;;;;;;5044471;28;20021;-59
2023/06/21 11:39:04;;;;;;;4.60;4.20;;;32.30;67.10;;;;;;5047947;28;20569;-58
2023/06/21 11:41:43;;;;;;;6.68;4.35;;;33.60;66.60;;;;;;5045047;28;20036;-59
2023/06/21 11:44:30;;;;;;;6.65;4.72;;;34.00;65.10;;;;;;5058889;28;20025;-59
2023/06/21 11:47:16;;;;;;;5.35;4.80;;;34.10;63.30;;;;;;5051922;28;20505;-59
2023/06/21 11:50:01;;;;;;;4.60;4.20;;;34.20;63.40;;;;;;5048496;28;20449;-60
2023/06/21 11:52:32;;;;;;;5.57;3.75;;;35.20;62.40;;;;;;5046084;28;20047;-59
2023/06/21 11:55:10;;;;;;;4.43;4.03;;;35.60;60.20;;;;;;5051930;28;20025;-59
2023/06/21 11:57:44;;;;;;;4.90;4.40;;;35.10;61.10;;;;;;5032929;28;20456;-58
2023/06/21 12:00:10;;;;;;;9.32;4.07;;;34.70;61.10;;;;;;5047093;28;20025;-59
2023/06/21 12:02:35;;;;;;;6.53;4.30;;;34.70;62.10;;;;;;5048328;28;20530;-58
2023/06/21 12:05:01;;;;;;;4.38;3.92;;;34.90;62.10;;;;;;5036342;28;20017;-59
2023/06/21 12:07:27;;;;;;;5.10;4.57;;;33.90;62.00;;;;;;5036391;28;20029;-57
2023/06/21 12:09:53;;;;;;;5.95;4.38;;;33.70;63.80;;;;;;5048986;28;20041;-58
2023/06/21 12:12:18;;;;;;;5.15;4.10;;;33.50;62.40;;;;;;5046078;28;20017;-60
2023/06/21 12:14:44;;;;;;;5.97;4.20;;;32.90;63.70;;;;;;5047747;28;20476;-59
2023/06/21 12:17:17;;;;;;;4.95;4.55;;;32.50;65.00;;;;;;5052476;28;20041;-59
2023/06/21 12:19:43;;;;;;;6.53;4.80;;;32.00;66.10;;;;;;5050689;28;20033;-59
2023/06/21 12:22:13;;;;;;;5.97;4.78;;;32.30;65.80;;;;;;5048384;28;20437;-57
2023/06/21 12:24:38;;;;;;;5.60;4.50;;;32.20;66.40;;;;;;5042389;28;20024;-57
2023/06/21 12:27:04;;;;;;;6.72;5.00;;;31.90;66.60;;;;;;5048158;28;20029;-59
2023/06/21 12:29:30;;;;;;;5.57;4.78;;;31.80;66.40;;;;;;5048123;28;20040;-57
2023/06/21 12:31:58;;;;;;;5.57;5.07;;;31.50;68.60;;;;;;5029876;28;20021;-58
2023/06/21 12:34:25;;;;;;;6.28;5.32;;;31.30;69.00;;;;;;5029455;28;20104;-59
2023/06/21 12:36:51;;;;;;;7.28;5.60;;;31.40;67.20;;;;;;5047903;28;20040;-57
2023/06/21 12:39:17;;;;;;;9.10;5.63;;;31.90;65.80;;;;;;5046677;28;20545;-59
2023/06/21 12:41:43;;;;;;;6.63;5.15;;;32.10;64.40;;;;;;5047241;28;20071;-58
2023/06/21 12:44:31;;;;;;;5.78;5.10;;;32.30;63.40;;;;;;5048748;28;20024;-58
2023/06/21 12:46:57;;;;;;;6.63;5.20;;;32.40;62.90;;;;;;5049210;28;20021;-59
2023/06/21 12:49:22;;;;;;;6.95;6.32;;;32.70;64.30;;;;;;5049772;28;20028;-59
2023/06/21 12:51:48;;;;;;;9.15;5.80;;;32.40;63.20;;;;;;5050475;28;20398;-58
2023/06/21 12:54:19;;;;;;;8.15;6.32;;;32.20;65.40;;;;;;5049181;28;20579;-60
2023/06/21 12:56:47;;;;;;;9.73;6.60;;;32.10;64.30;;;;;;5065218;28;20111;-59